createdAt,value
2022-09-30T00:01:06.359Z,100809.31
2022-09-30T00:03:44.452Z,100651.13
2022-09-30T00:06:13.000Z,100748.59
2022-09-30T00:08:53.363Z,100668.41
2022-09-30T00:11:25.401Z,100676.78
2022-09-30T00:13:56.566Z,100859.44
2022-09-30T00:16:26.775Z,100868.31
2022-09-30T00:18:58.674Z,100814.66
2022-09-30T00:21:27.409Z,100702.69
2022-09-30T00:23:54.644Z,100664.41
2022-09-30T00:26:23.757Z,100850.53
2022-09-30T00:28:55.227Z,100825.56
2022-09-30T00:31:27.184Z,100870.50
2022-09-30T00:34:18.386Z,100678.75
2022-09-30T00:36:48.215Z,100801.06
2022-09-30T00:39:21.178Z,100875.84
2022-09-30T00:41:56.924Z,100812.03
2022-09-30T00:44:53.014Z,100875.56
2022-09-30T00:47:37.236Z,100859.53
2022-09-30T00:50:15.955Z,100666.25
2022-09-30T00:52:58.058Z,100897.66
2022-09-30T00:55:36.851Z,100682.44
2022-09-30T00:58:16.091Z,100810.72
2022-09-30T01:00:43.097Z,100750.50
2022-09-30T01:03:10.154Z,100810.78
2022-09-30T01:05:40.432Z,100718.28
2022-09-30T01:08:17.310Z,100753.19
2022-09-30T01:10:44.383Z,100789.03
2022-09-30T01:13:13.208Z,100718.81
2022-09-30T01:15:57.774Z,100703.22
2022-09-30T01:18:53.308Z,100839.63
2022-09-30T01:21:56.809Z,100803.53
2022-09-30T01:24:47.872Z,100799.25
2022-09-30T01:27:42.555Z,100808.91
2022-09-30T01:30:23.511Z,100721.03
2022-09-30T01:33:04.218Z,100804.97
2022-09-30T01:35:55.009Z,100724.59
2022-09-30T01:38:30.563Z,100723.59
2022-09-30T01:41:07.876Z,100826.63
2022-09-30T01:43:45.088Z,100660.09
2022-09-30T01:46:38.332Z,100690.97
2022-09-30T01:49:21.565Z,100681.19
2022-09-30T01:51:58.413Z,100679.56
2022-09-30T01:54:35.209Z,100892.75
2022-09-30T01:57:07.907Z,100700.81
2022-09-30T01:59:40.748Z,100805.69
2022-09-30T02:02:17.157Z,100720.59
2022-09-30T02:04:51.728Z,100718.47
2022-09-30T02:07:25.037Z,100779.50
2022-09-30T02:09:57.810Z,100822.28
2022-09-30T02:12:31.412Z,100811.09
2022-09-30T02:15:03.099Z,100834.63
2022-09-30T02:17:35.267Z,100904.63
2022-09-30T02:20:10.479Z,100901.03
2022-09-30T02:22:41.470Z,100912.06
2022-09-30T02:25:10.606Z,100752.38
2022-09-30T02:27:40.126Z,100851.09
2022-09-30T02:30:10.959Z,100807.44
2022-09-30T02:32:44.354Z,100846.94
2022-09-30T02:35:22.203Z,100934.94
2022-09-30T02:37:52.900Z,100842.41
2022-09-30T02:40:25.085Z,100754.44
2022-09-30T02:42:52.147Z,100823.44
2022-09-30T02:45:23.176Z,100744.03
2022-09-30T02:48:06.633Z,100917.31
2022-09-30T02:50:43.962Z,100762.59
2022-09-30T02:53:20.177Z,100730.13
2022-09-30T02:56:14.757Z,100920.00
2022-09-30T02:58:42.454Z,100742.09
2022-09-30T03:01:12.738Z,100916.81
2022-09-30T03:03:43.755Z,100876.75
2022-09-30T03:06:12.767Z,100886.94
2022-09-30T03:08:41.841Z,100794.53
2022-09-30T03:11:17.058Z,100916.13
2022-09-30T03:14:13.444Z,100785.22
2022-09-30T03:17:02.347Z,100728.91
2022-09-30T03:19:46.012Z,100841.09
2022-09-30T03:22:36.668Z,100753.94
2022-09-30T03:25:16.762Z,100926.41
2022-09-30T03:27:55.177Z,100806.38
2022-09-30T03:30:25.658Z,100944.63
2022-09-30T03:33:03.327Z,100758.97
2022-09-30T03:35:36.422Z,100792.63
2022-09-30T03:38:13.779Z,100925.91
2022-09-30T03:40:53.695Z,100740.28
2022-09-30T03:43:27.521Z,100843.59
2022-09-30T03:45:59.610Z,100904.53
2022-09-30T03:48:29.582Z,100871.16
2022-09-30T03:50:57.385Z,100924.91
2022-09-30T03:53:25.831Z,100709.25
2022-09-30T03:55:57.734Z,100920.84
2022-09-30T03:58:33.586Z,100840.75
2022-09-30T04:01:04.130Z,100718.53
2022-09-30T04:03:34.148Z,100838.81
2022-09-30T04:06:04.735Z,100902.19
2022-09-30T04:08:34.048Z,100934.94
2022-09-30T04:11:00.878Z,100927.94
2022-09-30T04:13:27.642Z,100940.09
2022-09-30T04:15:54.793Z,100837.19
2022-09-30T04:18:21.507Z,100852.19
2022-09-30T04:20:48.660Z,100763.06
2022-09-30T04:23:15.888Z,100737.03
2022-09-30T04:25:44.001Z,100798.00
2022-09-30T04:28:10.747Z,100925.38
2022-09-30T04:30:38.388Z,100865.53
2022-09-30T04:33:05.593Z,100928.91
2022-09-30T04:35:32.922Z,100911.31
2022-09-30T04:38:01.206Z,100943.31
2022-09-30T04:40:28.105Z,100950.84
2022-09-30T04:42:57.679Z,100940.09
2022-09-30T04:45:27.084Z,100901.59
2022-09-30T04:47:53.831Z,100950.75
2022-09-30T04:50:21.011Z,100802.78
2022-09-30T04:52:51.371Z,100787.44
2022-09-30T04:55:23.097Z,100926.13
2022-09-30T04:57:50.202Z,100893.38
2022-09-30T05:00:20.332Z,100927.09
2022-09-30T05:02:55.533Z,100977.41
2022-09-30T05:05:28.596Z,100965.47
2022-09-30T05:08:32.980Z,100906.34
2022-09-30T05:11:08.296Z,100783.69
2022-09-30T05:13:49.474Z,100805.03
2022-09-30T05:19:10.163Z,100910.66
2022-09-30T05:21:44.763Z,100907.97
2022-09-30T05:24:19.975Z,100946.41
2022-09-30T05:26:57.242Z,101002.38
2022-09-30T05:29:25.774Z,100789.09
2022-09-30T05:31:59.757Z,100937.72
2022-09-30T05:34:31.837Z,100919.66
2022-09-30T05:36:58.815Z,100919.66
2022-09-30T05:39:31.117Z,100936.97
2022-09-30T05:41:58.428Z,100925.22
2022-09-30T05:44:26.729Z,100876.72
2022-09-30T05:46:53.626Z,100905.31
2022-09-30T05:49:24.956Z,100994.69
2022-09-30T05:51:51.861Z,101002.19
2022-09-30T05:54:18.697Z,101000.53
2022-09-30T05:56:53.198Z,100943.25
2022-09-30T05:59:20.153Z,100910.50
2022-09-30T06:01:50.375Z,101013.25
2022-09-30T06:04:18.494Z,100998.38
2022-09-30T06:06:53.536Z,100840.13
2022-09-30T06:09:20.505Z,100904.44
2022-09-30T06:11:50.421Z,100992.38
2022-09-30T06:14:17.553Z,100897.56
2022-09-30T06:16:44.543Z,100993.88
2022-09-30T06:19:11.300Z,100849.09
2022-09-30T06:21:38.558Z,100925.69
2022-09-30T06:24:09.384Z,100901.72
2022-09-30T06:26:36.486Z,100975.31
2022-09-30T06:29:03.218Z,100952.94
2022-09-30T06:31:30.033Z,100999.28
2022-09-30T06:33:57.070Z,100961.06
2022-09-30T06:36:29.690Z,100798.06
2022-09-30T06:38:58.081Z,100888.59
2022-09-30T06:41:29.723Z,101028.16
2022-09-30T06:44:02.719Z,101003.38
2022-09-30T06:46:31.437Z,100990.44
2022-09-30T06:49:12.976Z,100823.56
2022-09-30T06:51:41.570Z,100865.63
2022-09-30T06:54:11.458Z,100872.97
2022-09-30T06:56:40.781Z,100938.59
2022-09-30T06:59:08.352Z,101015.00
2022-09-30T07:01:35.430Z,100859.50
2022-09-30T07:04:02.605Z,100961.69
2022-09-30T07:06:31.118Z,101017.94
2022-09-30T07:09:01.007Z,100904.44
2022-09-30T07:11:33.017Z,100996.56
2022-09-30T07:14:03.840Z,100846.72
2022-09-30T07:16:31.184Z,100913.97
2022-09-30T07:18:58.446Z,101013.78
2022-09-30T07:21:30.844Z,101012.91
2022-09-30T07:23:59.677Z,100864.94
2022-09-30T07:26:32.672Z,100880.63
2022-09-30T07:29:01.350Z,100966.56
2022-09-30T07:31:37.456Z,100839.53
2022-09-30T07:34:09.340Z,100836.16
2022-09-30T07:36:37.992Z,100830.91
2022-09-30T07:39:10.808Z,100851.69
2022-09-30T07:42:03.266Z,100981.78
2022-09-30T07:44:57.263Z,100841.13
2022-09-30T07:47:27.024Z,101019.50
2022-09-30T07:49:56.866Z,100970.44
2022-09-30T07:52:23.767Z,101036.66
2022-09-30T07:54:56.284Z,100850.19
2022-09-30T07:57:29.321Z,100869.59
2022-09-30T08:00:11.740Z,100930.91
2022-09-30T08:02:47.126Z,100922.00
2022-09-30T08:05:14.389Z,100843.00
2022-09-30T08:07:47.341Z,100826.28
2022-09-30T08:10:14.586Z,100895.34
2022-09-30T08:12:43.385Z,100993.84
2022-09-30T08:15:40.568Z,101023.66
2022-09-30T08:18:20.257Z,100984.16
2022-09-30T08:20:50.273Z,100925.97
2022-09-30T08:23:31.068Z,100888.63
2022-09-30T08:26:04.270Z,100945.22
2022-09-30T08:28:36.799Z,100882.97
2022-09-30T08:31:31.606Z,100863.81
2022-09-30T08:34:00.732Z,100912.31
2022-09-30T08:36:29.989Z,100861.44
2022-09-30T08:39:01.466Z,100830.06
2022-09-30T08:42:19.218Z,100989.53
2022-09-30T08:44:58.141Z,101002.78
2022-09-30T08:47:56.341Z,100848.53
2022-09-30T08:50:30.543Z,100893.44
2022-09-30T08:53:12.250Z,100994.41
2022-09-30T08:55:44.512Z,100889.66
2022-09-30T08:58:27.655Z,100869.91
2022-09-30T09:00:59.240Z,100924.84
2022-09-30T09:03:42.459Z,101036.13
2022-09-30T09:06:47.797Z,101023.38
2022-09-30T09:09:41.344Z,100881.28
2022-09-30T09:12:27.799Z,100855.06
2022-09-30T09:15:18.367Z,100945.13
2022-09-30T09:21:08.736Z,100952.94
2022-09-30T09:23:39.347Z,100999.44
2022-09-30T09:26:09.054Z,100900.44
2022-09-30T09:29:03.404Z,100865.00
2022-09-30T09:31:41.518Z,100844.69
2022-09-30T09:37:08.666Z,101013.66
2022-09-30T09:40:06.226Z,100963.63
2022-09-30T09:42:58.163Z,100830.00
2022-09-30T09:48:47.030Z,100858.50
2022-09-30T09:51:30.490Z,100993.47
2022-09-30T09:54:07.142Z,100891.81
2022-09-30T09:56:40.439Z,100923.63
2022-09-30T09:59:20.169Z,100937.88
2022-09-30T10:01:56.736Z,100981.00
2022-09-30T10:04:33.490Z,100828.03
2022-09-30T10:07:20.352Z,100822.78
2022-09-30T10:10:13.974Z,100969.25
2022-09-30T10:12:59.184Z,100965.56
2022-09-30T10:15:34.533Z,100980.53
2022-09-30T10:18:23.808Z,100968.13
2022-09-30T10:21:06.517Z,100913.16
2022-09-30T10:23:38.760Z,100963.13
2022-09-30T10:29:27.121Z,100877.94
2022-09-30T10:32:17.046Z,100962.00
2022-09-30T10:35:21.055Z,100956.47
2022-09-30T10:38:00.408Z,100804.47
2022-09-30T10:40:36.803Z,100844.84
2022-09-30T10:43:07.935Z,100860.28
2022-09-30T10:45:49.413Z,100783.66
2022-09-30T10:48:35.821Z,100848.63
2022-09-30T10:51:07.159Z,100855.78
2022-09-30T10:53:48.022Z,100831.91
2022-09-30T10:56:35.579Z,100968.94
2022-09-30T10:59:11.105Z,100804.47
2022-09-30T11:09:14.860Z,100886.69
2022-09-30T11:11:58.985Z,100959.22
2022-09-30T11:14:42.243Z,100957.91
2022-09-30T11:17:31.928Z,100842.94
2022-09-30T11:20:18.726Z,100814.72
2022-09-30T11:22:56.870Z,100800.91
2022-09-30T11:25:29.924Z,100780.91
2022-09-30T11:28:24.707Z,100827.38
2022-09-30T11:31:34.319Z,100939.47
2022-09-30T11:34:19.676Z,100814.84
2022-09-30T11:38:07.672Z,100797.91
2022-09-30T11:40:33.014Z,100858.38
2022-09-30T11:46:58.640Z,100862.09
2022-09-30T11:49:59.483Z,100868.97
2022-09-30T11:52:46.966Z,100896.19
2022-09-30T11:55:54.082Z,100816.44
2022-09-30T12:01:51.162Z,100896.69
2022-09-30T12:04:44.203Z,100772.25
2022-09-30T12:07:31.412Z,100849.69
2022-09-30T12:13:01.086Z,100735.03
2022-09-30T12:15:43.559Z,100749.84
2022-09-30T12:18:29.721Z,100769.41
2022-09-30T12:21:01.264Z,100901.75
2022-09-30T12:23:56.478Z,100889.69
2022-09-30T12:30:01.425Z,100895.97
2022-09-30T12:33:12.874Z,100745.09
2022-09-30T12:36:36.129Z,100893.38
2022-09-30T12:39:52.571Z,100829.06
2022-09-30T12:43:18.674Z,100814.69
2022-09-30T12:46:29.374Z,100731.16
2022-09-30T12:49:21.740Z,100848.56
2022-09-30T12:52:09.789Z,100897.38
2022-09-30T12:54:53.948Z,100855.09
2022-09-30T12:57:38.157Z,100825.88
2022-09-30T13:05:20.512Z,100710.72
2022-09-30T13:07:31.072Z,100877.53
2022-09-30T13:13:58.126Z,100721.88
2022-09-30T13:20:28.602Z,100698.84
2022-09-30T13:23:40.612Z,100753.25
2022-09-30T13:27:45.495Z,100849.28
2022-09-30T13:30:51.853Z,100699.81
2022-09-30T13:36:49.807Z,100763.72
2022-09-30T13:42:44.207Z,100839.13
2022-09-30T13:48:21.159Z,100843.41
2022-09-30T13:51:36.995Z,100687.41
2022-09-30T13:57:51.150Z,100819.81
2022-09-30T14:01:07.520Z,100666.78
2022-09-30T14:04:09.689Z,100702.38
2022-09-30T14:17:50.376Z,100639.91
2022-09-30T14:27:51.105Z,100649.34
2022-09-30T14:30:51.118Z,100791.34
2022-09-30T14:37:18.645Z,100635.97
2022-09-30T14:40:51.559Z,100790.81
2022-09-30T15:25:34.546Z,100761.88
2022-09-30T15:28:36.258Z,100729.47
2022-09-30T15:34:45.460Z,100681.66
2022-09-30T15:40:51.261Z,100741.47
2022-09-30T15:43:55.205Z,100615.97
2022-09-30T15:50:41.891Z,100602.50
2022-09-30T15:56:46.461Z,100602.00
2022-09-30T15:59:54.424Z,100776.94
2022-09-30T16:22:34.764Z,100764.78
2022-09-30T16:25:28.482Z,100541.34
2022-09-30T16:28:39.697Z,100736.41
2022-09-30T16:44:22.625Z,100572.28
2022-09-30T16:54:18.696Z,100751.59
2022-09-30T16:57:27.882Z,100746.88
2022-09-30T17:00:17.551Z,100750.28
2022-09-30T17:03:15.567Z,100734.63
2022-09-30T17:09:30.704Z,100746.63
2022-09-30T17:12:46.803Z,100565.09
2022-09-30T17:19:29.692Z,100653.63
2022-09-30T17:22:57.250Z,100547.13
2022-09-30T17:26:18.484Z,100711.81
2022-09-30T18:50:38.311Z,100650.69
2022-09-30T19:32:14.168Z,100560.81
2022-09-30T19:42:22.681Z,100549.72
2022-09-30T20:05:59.049Z,100446.38
2022-09-30T20:08:51.397Z,100310.88
2022-09-30T20:25:12.269Z,100410.78
2022-09-30T20:31:59.716Z,100459.78
2022-09-30T20:51:36.576Z,100462.59
2022-09-30T21:10:37.198Z,100254.06
2022-09-30T21:14:02.920Z,100274.69
2022-09-30T21:23:27.220Z,100440.38
2022-09-30T21:32:22.813Z,100333.75
2022-09-30T22:14:29.446Z,100429.47
2022-09-30T22:17:23.488Z,100424.13
2022-09-30T22:40:37.003Z,100380.31
2022-09-30T22:43:24.073Z,100254.84
2022-09-30T22:46:27.958Z,100419.09
2022-09-30T22:52:32.278Z,100340.09
2022-09-30T22:55:03.659Z,100216.53
2022-09-30T22:58:07.722Z,100212.16
2022-09-30T23:01:15.651Z,100390.34
2022-09-30T23:07:10.776Z,100365.50
2022-09-30T23:13:22.777Z,100360.09
2022-09-30T23:16:04.785Z,100349.09
2022-09-30T23:25:01.651Z,100233.50
2022-09-30T23:37:30.861Z,100138.38
2022-09-30T23:40:29.141Z,100291.41
2022-09-30T23:43:07.437Z,100097.00
2022-09-30T23:46:20.313Z,100283.88
2022-09-30T23:51:39.942Z,100168.84
2022-09-30T23:54:16.468Z,100070.47
2022-09-30T23:57:18.551Z,100060.25
2022-09-30T23:59:55.768Z,100048.69
